Time;durP1;ratioP1;P1;durP2;ratioP2;P2;SDS_P1;SDS_P2;PMS_P1;PMS_P2;Temp;Humidity;BMP_temperature;BMP_pressure;BME280_temperature;BME280_humidity;BME280_pressure;Samples;Min_cycle;Max_cycle;Signal;HPM_P1;HPM_P2
2020/12/19 00:00:07;;;;;;;17.50;13.15;;;;;;;;;;5023778;28;20320;-58
2020/12/19 00:02:33;;;;;;;18.07;12.60;;;;;;;;;;5019468;28;20204;-58
2020/12/19 00:04:58;;;;;;;16.63;12.73;;;;;;;;;;5027517;28;20179;-56
2020/12/19 00:07:23;;;;;;;14.43;11.13;;;;;;;;;;5013532;28;20184;-56
2020/12/19 00:09:49;;;;;;;14.30;12.20;;;;;;;;;;5027449;28;20262;-56
2020/12/19 00:12:14;;;;;;;13.73;11.43;;;;;;;;;;5011178;28;20260;-56
2020/12/19 00:14:39;;;;;;;13.85;12.35;;;;;;;;;;5020618;28;20228;-57
2020/12/19 00:17:04;;;;;;;16.52;13.13;;;;;;;;;;5019920;28;20186;-56
2020/12/19 00:19:29;;;;;;;16.92;12.13;;;;;;;;;;5024251;28;20172;-57
2020/12/19 00:21:54;;;;;;;14.30;11.60;;;;;;;;;;5020561;28;20175;-56
2020/12/19 00:24:19;;;;;;;17.00;12.07;;;;;;;;;;5014240;28;20197;-57
2020/12/19 00:26:45;;;;;;;16.83;12.03;;;;;;;;;;5018742;28;20217;-57
2020/12/19 00:29:11;;;;;;;17.67;12.50;;;;;;;;;;5021733;28;20226;-56
2020/12/19 00:31:37;;;;;;;15.97;12.30;;;;;;;;;;5029225;28;20191;-56
2020/12/19 00:34:02;;;;;;;17.17;12.43;;;;;;;;;;5004165;28;20715;-55
2020/12/19 00:36:27;;;;;;;16.37;12.60;;;;;;;;;;5027248;28;20186;-57
2020/12/19 00:38:53;;;;;;;15.13;12.20;;;;;;;;;;5023433;28;20185;-57
2020/12/19 00:41:20;;;;;;;14.10;10.87;;;;;;;;;;5028765;28;20182;-55
2020/12/19 00:43:45;;;;;;;12.73;10.43;;;;;;;;;;5031711;28;20714;-56
2020/12/19 00:46:11;;;;;;;15.17;12.47;;;;;;;;;;5005202;28;20611;-56
2020/12/19 00:48:36;;;;;;;12.77;10.57;;;;;;;;;;5016343;28;20175;-56
2020/12/19 00:51:01;;;;;;;16.05;12.23;;;;;;;;;;5019000;28;20175;-56
2020/12/19 00:53:26;;;;;;;14.98;11.70;;;;;;;;;;5017219;28;20708;-56
2020/12/19 00:55:51;;;;;;;14.90;11.65;;;;;;;;;;5022954;28;20240;-56
2020/12/19 00:58:16;;;;;;;11.90;10.10;;;;;;;;;;5015222;28;20187;-56
2020/12/19 01:00:42;;;;;;;12.90;11.20;;;;;;;;;;5012948;28;20670;-56
2020/12/19 01:03:08;;;;;;;13.07;11.40;;;;;;;;;;5018964;28;20193;-56
2020/12/19 01:05:34;;;;;;;14.10;11.00;;;;;;;;;;5018604;28;20605;-55
2020/12/19 01:07:59;;;;;;;14.73;11.73;;;;;;;;;;5011506;28;20268;-55
2020/12/19 01:10:24;;;;;;;17.60;12.05;;;;;;;;;;5010914;28;20734;-55
2020/12/19 01:12:49;;;;;;;14.40;11.10;;;;;;;;;;5022865;28;20291;-56
2020/12/19 01:15:14;;;;;;;16.65;11.38;;;;;;;;;;5013384;28;20637;-56
2020/12/19 01:17:40;;;;;;;12.10;10.80;;;;;;;;;;5012816;28;20176;-56
2020/12/19 01:20:05;;;;;;;15.03;11.47;;;;;;;;;;5012940;28;20232;-56
2020/12/19 01:22:32;;;;;;;14.15;11.02;;;;;;;;;;5017803;28;20179;-56
2020/12/19 01:24:57;;;;;;;12.43;10.20;;;;;;;;;;5004301;28;20195;-56
2020/12/19 01:27:22;;;;;;;13.70;10.88;;;;;;;;;;5022441;28;20601;-56
2020/12/19 01:29:47;;;;;;;13.00;11.57;;;;;;;;;;5027824;28;20601;-56
2020/12/19 01:32:13;;;;;;;14.07;10.93;;;;;;;;;;5026598;28;20248;-56
2020/12/19 01:34:38;;;;;;;12.23;10.07;;;;;;;;;;5012346;28;20248;-56
2020/12/19 01:37:03;;;;;;;11.50;10.27;;;;;;;;;;5017732;28;20258;-56
2020/12/19 01:39:28;;;;;;;13.95;11.35;;;;;;;;;;5019246;28;20183;-56
2020/12/19 01:41:53;;;;;;;12.80;11.10;;;;;;;;;;5022941;28;20225;-56
2020/12/19 01:44:19;;;;;;;13.23;10.37;;;;;;;;;;5018199;28;20622;-56
2020/12/19 01:46:44;;;;;;;12.33;10.10;;;;;;;;;;5010608;28;20284;-56
2020/12/19 01:49:09;;;;;;;12.20;10.30;;;;;;;;;;5009915;28;20194;-56
2020/12/19 01:51:35;;;;;;;14.20;11.07;;;;;;;;;;5025932;28;20190;-56
2020/12/19 01:54:00;;;;;;;13.17;10.10;;;;;;;;;;5006771;28;20197;-56
2020/12/19 01:56:44;;;;;;;12.52;10.70;;;;;;;;;;5017214;28;20180;-56
2020/12/19 01:59:09;;;;;;;11.33;10.10;;;;;;;;;;5022559;28;20183;-57
2020/12/19 02:01:41;;;;;;;12.70;10.70;;;;;;;;;;5017465;28;20758;-58
2020/12/19 02:04:06;;;;;;;11.20;10.10;;;;;;;;;;5010100;28;20185;-57
2020/12/19 02:06:31;;;;;;;10.25;8.80;;;;;;;;;;5004663;28;20610;-57
2020/12/19 02:08:56;;;;;;;11.43;9.80;;;;;;;;;;5024407;28;20278;-57
2020/12/19 02:11:22;;;;;;;12.98;10.20;;;;;;;;;;5013846;28;20191;-57
2020/12/19 02:13:47;;;;;;;12.33;10.00;;;;;;;;;;5013339;28;20217;-56
2020/12/19 02:16:16;;;;;;;12.13;9.57;;;;;;;;;;5021600;28;20647;-56
2020/12/19 02:18:41;;;;;;;12.40;10.00;;;;;;;;;;5023106;28;20172;-57
2020/12/19 02:21:06;;;;;;;11.95;9.88;;;;;;;;;;5016091;28;20739;-57
2020/12/19 02:23:31;;;;;;;12.35;10.25;;;;;;;;;;5006459;28;20227;-56
2020/12/19 02:25:56;;;;;;;12.07;9.73;;;;;;;;;;5010895;28;20226;-57
2020/12/19 02:28:22;;;;;;;10.77;9.30;;;;;;;;;;5016959;28;20656;-56
2020/12/19 02:30:47;;;;;;;13.48;10.50;;;;;;;;;;5024336;28;20217;-56
2020/12/19 02:33:12;;;;;;;12.10;9.98;;;;;;;;;;5020014;28;20217;-56
2020/12/19 02:35:37;;;;;;;10.00;9.05;;;;;;;;;;5008600;28;20662;-57
2020/12/19 02:38:02;;;;;;;11.48;10.27;;;;;;;;;;5013718;28;20210;-57
2020/12/19 02:40:27;;;;;;;10.87;9.20;;;;;;;;;;5023108;28;20175;-57
2020/12/19 02:42:53;;;;;;;11.37;9.67;;;;;;;;;;5015974;28;20187;-57
2020/12/19 02:45:18;;;;;;;12.97;10.73;;;;;;;;;;5020039;28;20179;-57
2020/12/19 02:47:43;;;;;;;12.77;9.50;;;;;;;;;;5011325;28;20757;-58
2020/12/19 02:50:08;;;;;;;10.38;8.88;;;;;;;;;;5016973;28;20175;-58
2020/12/19 02:52:33;;;;;;;12.13;9.85;;;;;;;;;;5023944;28;20176;-57
2020/12/19 02:54:58;;;;;;;10.87;9.07;;;;;;;;;;5014823;28;20207;-58
2020/12/19 02:57:23;;;;;;;11.55;9.55;;;;;;;;;;5016423;28;20183;-57
2020/12/19 02:59:49;;;;;;;11.90;10.07;;;;;;;;;;5020018;28;20258;-58
2020/12/19 03:02:23;;;;;;;10.40;9.37;;;;;;;;;;5007798;28;20209;-57
2020/12/19 03:04:48;;;;;;;12.13;10.43;;;;;;;;;;5022830;28;20208;-57
2020/12/19 03:07:13;;;;;;;11.73;9.13;;;;;;;;;;5027719;28;20622;-57
2020/12/19 03:09:38;;;;;;;10.65;9.55;;;;;;;;;;5025298;28;20171;-57
2020/12/19 03:12:04;;;;;;;10.73;9.60;;;;;;;;;;5021147;28;20184;-58
2020/12/19 03:14:29;;;;;;;13.33;10.10;;;;;;;;;;5006298;28;20365;-58
2020/12/19 03:16:54;;;;;;;12.17;10.07;;;;;;;;;;5011557;28;20194;-57
2020/12/19 03:19:19;;;;;;;11.50;9.57;;;;;;;;;;5024071;28;20182;-57
2020/12/19 03:21:44;;;;;;;10.60;9.50;;;;;;;;;;5020133;28;20182;-57
2020/12/19 03:24:10;;;;;;;11.13;9.43;;;;;;;;;;5018364;28;20207;-57
2020/12/19 03:26:35;;;;;;;10.55;8.80;;;;;;;;;;5022904;28;20252;-56
2020/12/19 03:29:00;;;;;;;11.20;8.63;;;;;;;;;;5018226;28;20180;-57
2020/12/19 03:31:25;;;;;;;8.67;7.77;;;;;;;;;;5023189;28;20551;-58
2020/12/19 03:33:51;;;;;;;11.13;8.60;;;;;;;;;;5019542;28;20659;-58
2020/12/19 03:36:16;;;;;;;9.30;8.40;;;;;;;;;;5019454;28;20195;-58
2020/12/19 03:38:41;;;;;;;10.40;9.30;;;;;;;;;;5008443;28;20176;-57
2020/12/19 03:41:06;;;;;;;9.47;8.47;;;;;;;;;;5011438;28;20187;-58
2020/12/19 03:43:32;;;;;;;8.52;7.72;;;;;;;;;;5031490;28;20677;-56
2020/12/19 03:45:57;;;;;;;9.38;8.48;;;;;;;;;;5015349;28;20743;-57
2020/12/19 03:48:22;;;;;;;9.93;8.70;;;;;;;;;;5013634;28;20199;-57
2020/12/19 03:50:47;;;;;;;10.53;8.57;;;;;;;;;;5011097;28;20197;-57
2020/12/19 03:53:12;;;;;;;10.50;9.33;;;;;;;;;;5005625;28;20215;-57
2020/12/19 03:55:38;;;;;;;8.80;8.00;;;;;;;;;;5021094;28;20179;-56
2020/12/19 03:58:03;;;;;;;10.53;8.27;;;;;;;;;;5026113;28;20206;-56
2020/12/19 04:00:28;;;;;;;10.63;8.60;;;;;;;;;;5020470;28;20254;-56
2020/12/19 04:02:53;;;;;;;9.63;7.63;;;;;;;;;;5019164;28;20196;-56
2020/12/19 04:05:18;;;;;;;9.55;8.60;;;;;;;;;;5008443;28;20184;-57
2020/12/19 04:07:44;;;;;;;9.97;8.03;;;;;;;;;;5008831;28;20532;-57
2020/12/19 04:10:09;;;;;;;11.80;8.47;;;;;;;;;;5016320;28;20187;-57
2020/12/19 04:12:35;;;;;;;10.63;9.07;;;;;;;;;;5027025;28;20221;-57
2020/12/19 04:15:01;;;;;;;8.77;7.90;;;;;;;;;;5028035;28;20176;-57
2020/12/19 04:17:27;;;;;;;9.83;8.30;;;;;;;;;;5002866;28;20180;-57
2020/12/19 04:19:52;;;;;;;9.87;8.87;;;;;;;;;;5010589;28;20611;-56
2020/12/19 04:22:17;;;;;;;10.13;9.07;;;;;;;;;;5018703;28;20729;-56
2020/12/19 04:24:42;;;;;;;9.00;7.88;;;;;;;;;;5011081;28;20204;-55
2020/12/19 04:27:07;;;;;;;9.10;8.03;;;;;;;;;;5010590;28;20190;-57
2020/12/19 04:29:32;;;;;;;9.52;7.90;;;;;;;;;;5010573;28;20181;-57
2020/12/19 04:31:58;;;;;;;10.97;8.47;;;;;;;;;;5019481;28;20209;-56
2020/12/19 04:34:24;;;;;;;10.73;8.37;;;;;;;;;;5027519;28;20218;-56
2020/12/19 04:36:49;;;;;;;10.87;8.57;;;;;;;;;;5023853;28;20263;-56
2020/12/19 04:39:14;;;;;;;10.03;8.40;;;;;;;;;;5003119;28;20166;-56
2020/12/19 04:41:39;;;;;;;8.70;7.77;;;;;;;;;;5016190;28;20174;-56
2020/12/19 04:44:04;;;;;;;8.83;7.93;;;;;;;;;;5028088;28;20269;-56
2020/12/19 04:46:30;;;;;;;9.17;7.60;;;;;;;;;;5030729;28;20175;-57
2020/12/19 04:48:57;;;;;;;13.47;8.90;;;;;;;;;;5020061;28;20191;-57
2020/12/19 04:51:24;;;;;;;9.73;8.07;;;;;;;;;;5028247;28;21282;-56
2020/12/19 04:53:49;;;;;;;11.90;9.30;;;;;;;;;;5019834;28;20740;-57
2020/12/19 04:56:15;;;;;;;9.38;8.38;;;;;;;;;;5031505;28;20693;-56
2020/12/19 04:58:41;;;;;;;11.73;8.97;;;;;;;;;;5009861;28;20180;-56
2020/12/19 05:01:06;;;;;;;10.13;8.87;;;;;;;;;;5015965;28;20600;-56
2020/12/19 05:03:32;;;;;;;11.20;8.87;;;;;;;;;;5030181;28;20176;-56
2020/12/19 05:05:57;;;;;;;12.03;10.00;;;;;;;;;;5005305;28;20623;-56
2020/12/19 05:08:22;;;;;;;11.00;9.63;;;;;;;;;;5015043;28;21263;-57
2020/12/19 05:10:48;;;;;;;8.73;7.82;;;;;;;;;;5029866;28;20194;-57
2020/12/19 05:13:13;;;;;;;11.50;8.87;;;;;;;;;;5017853;28;20200;-56
2020/12/19 05:15:39;;;;;;;9.68;8.68;;;;;;;;;;5021851;28;20610;-56
2020/12/19 05:18:04;;;;;;;10.63;9.10;;;;;;;;;;5013206;28;20196;-56
2020/12/19 05:20:30;;;;;;;12.60;9.95;;;;;;;;;;5019728;28;20269;-57
2020/12/19 05:22:56;;;;;;;12.23;10.07;;;;;;;;;;5027353;28;20187;-56
2020/12/19 05:25:23;;;;;;;13.67;10.13;;;;;;;;;;5024677;28;21109;-56
2020/12/19 05:27:48;;;;;;;13.20;9.80;;;;;;;;;;5019945;28;20199;-56
2020/12/19 05:30:14;;;;;;;11.43;10.03;;;;;;;;;;5011859;28;21198;-56
2020/12/19 05:32:47;;;;;;;12.93;10.53;;;;;;;;;;5016976;28;20553;-56
2020/12/19 05:35:13;;;;;;;11.63;9.67;;;;;;;;;;5020948;28;20643;-56
2020/12/19 05:37:38;;;;;;;11.77;9.90;;;;;;;;;;5024033;28;20590;-57
2020/12/19 05:40:06;;;;;;;11.27;9.20;;;;;;;;;;5014825;28;20607;-57
2020/12/19 05:42:31;;;;;;;12.63;10.50;;;;;;;;;;5011813;28;20543;-56
2020/12/19 05:44:56;;;;;;;15.70;11.57;;;;;;;;;;5000820;28;20956;-56
2020/12/19 05:47:22;;;;;;;12.88;10.27;;;;;;;;;;5012976;28;20643;-56
2020/12/19 05:49:47;;;;;;;12.13;10.27;;;;;;;;;;5014503;28;20219;-57
2020/12/19 05:52:14;;;;;;;12.87;9.60;;;;;;;;;;5020895;28;20187;-57
2020/12/19 05:54:40;;;;;;;12.70;10.43;;;;;;;;;;5020068;28;20290;-58
2020/12/19 05:57:05;;;;;;;12.83;10.40;;;;;;;;;;5017095;28;20610;-58
2020/12/19 05:59:31;;;;;;;15.87;11.37;;;;;;;;;;5009369;28;20597;-57
2020/12/19 06:01:56;;;;;;;15.60;11.77;;;;;;;;;;5016216;28;20182;-56
2020/12/19 06:04:21;;;;;;;15.33;11.20;;;;;;;;;;5018290;28;20581;-56
2020/12/19 06:06:47;;;;;;;14.63;11.00;;;;;;;;;;5014097;28;20597;-57
2020/12/19 06:09:13;;;;;;;12.77;10.40;;;;;;;;;;5009072;28;20697;-57
2020/12/19 06:12:03;;;;;;;18.53;12.17;;;;;;;;;;5015020;28;20177;-56
2020/12/19 06:14:30;;;;;;;16.80;11.20;;;;;;;;;;5016211;28;20657;-56
2020/12/19 06:16:59;;;;;;;14.97;11.50;;;;;;;;;;5023413;28;20604;-57
2020/12/19 06:19:24;;;;;;;15.13;11.53;;;;;;;;;;5011555;28;20599;-57
2020/12/19 06:21:54;;;;;;;15.00;11.60;;;;;;;;;;5007201;28;21145;-57
2020/12/19 06:24:38;;;;;;;16.40;11.83;;;;;;;;;;5016883;28;20203;-56
2020/12/19 06:27:07;;;;;;;17.43;12.43;;;;;;;;;;5015425;28;21111;-57
2020/12/19 06:29:36;;;;;;;15.03;12.20;;;;;;;;;;5023832;28;21181;-56
2020/12/19 06:32:01;;;;;;;15.40;11.77;;;;;;;;;;5006657;28;20626;-56
2020/12/19 06:34:27;;;;;;;16.97;12.17;;;;;;;;;;5021765;28;20650;-56
2020/12/19 06:36:54;;;;;;;16.33;13.60;;;;;;;;;;5016276;28;20540;-57
2020/12/19 06:39:19;;;;;;;14.43;11.73;;;;;;;;;;5011393;28;20551;-57
2020/12/19 06:41:49;;;;;;;15.13;11.80;;;;;;;;;;5029865;28;20949;-56
2020/12/19 06:44:30;;;;;;;14.20;11.40;;;;;;;;;;5026722;28;20184;-57
2020/12/19 06:46:56;;;;;;;15.07;12.03;;;;;;;;;;5017978;28;20664;-57
2020/12/19 06:49:35;;;;;;;18.17;13.10;;;;;;;;;;5009891;28;20599;-56
2020/12/19 06:52:01;;;;;;;16.07;12.63;;;;;;;;;;5011309;28;20260;-56
2020/12/19 06:54:27;;;;;;;16.53;11.30;;;;;;;;;;5019841;28;20637;-57
2020/12/19 06:56:52;;;;;;;13.83;11.00;;;;;;;;;;5023786;28;20604;-56
2020/12/19 06:59:21;;;;;;;17.20;13.07;;;;;;;;;;4995578;28;20171;-57
2020/12/19 07:01:46;;;;;;;14.93;12.90;;;;;;;;;;5008851;28;20188;-57
2020/12/19 07:04:30;;;;;;;15.53;12.90;;;;;;;;;;5016874;28;21067;-56
2020/12/19 07:07:06;;;;;;;15.10;12.20;;;;;;;;;;5034580;28;20187;-56
2020/12/19 07:09:31;;;;;;;13.83;12.30;;;;;;;;;;5018947;28;20630;-56
2020/12/19 07:11:56;;;;;;;18.77;12.30;;;;;;;;;;5002147;28;20634;-57
2020/12/19 07:14:22;;;;;;;18.77;14.33;;;;;;;;;;5024370;28;20667;-56
2020/12/19 07:16:51;;;;;;;15.90;12.90;;;;;;;;;;5009530;28;20523;-57
2020/12/19 07:19:26;;;;;;;14.43;11.63;;;;;;;;;;5020041;28;20633;-57
2020/12/19 07:21:53;;;;;;;15.83;12.03;;;;;;;;;;5015865;28;20608;-57
2020/12/19 07:24:18;;;;;;;15.70;12.47;;;;;;;;;;5008576;28;20667;-57
2020/12/19 07:26:44;;;;;;;16.63;12.80;;;;;;;;;;5015960;28;20644;-57
2020/12/19 07:29:19;;;;;;;15.00;12.07;;;;;;;;;;5002986;28;20543;-57
2020/12/19 07:31:55;;;;;;;16.73;12.97;;;;;;;;;;5007369;28;20191;-57
2020/12/19 07:34:21;;;;;;;14.90;11.10;;;;;;;;;;5020727;28;20649;-57
2020/12/19 07:36:47;;;;;;;13.33;11.07;;;;;;;;;;5017350;28;20636;-57
2020/12/19 07:39:13;;;;;;;16.30;12.57;;;;;;;;;;5020756;28;20641;-56
2020/12/19 07:41:39;;;;;;;15.20;11.47;;;;;;;;;;5025433;28;20712;-56
2020/12/19 07:44:11;;;;;;;14.93;11.73;;;;;;;;;;5018496;28;20703;-56
2020/12/19 07:46:47;;;;;;;11.60;9.83;;;;;;;;;;5006699;28;20195;-58
2020/12/19 07:49:21;;;;;;;13.27;11.00;;;;;;;;;;5010366;28;20633;-57
2020/12/19 07:51:46;;;;;;;14.17;11.60;;;;;;;;;;5006654;28;20614;-56
2020/12/19 07:54:11;;;;;;;18.27;13.68;;;;;;;;;;5021483;28;20646;-56
2020/12/19 07:56:37;;;;;;;19.17;13.05;;;;;;;;;;5032968;28;20182;-56
2020/12/19 07:59:02;;;;;;;14.60;11.93;;;;;;;;;;5016446;28;20602;-57
2020/12/19 08:01:27;;;;;;;16.30;13.37;;;;;;;;;;5000007;28;20179;-56
2020/12/19 08:03:58;;;;;;;17.30;12.95;;;;;;;;;;5006437;28;20176;-56
2020/12/19 08:06:23;;;;;;;13.77;11.23;;;;;;;;;;5023197;28;20273;-57
2020/12/19 08:08:57;;;;;;;16.85;12.30;;;;;;;;;;5008008;28;20700;-56
2020/12/19 08:11:22;;;;;;;16.00;12.60;;;;;;;;;;4999090;28;20205;-57
2020/12/19 08:13:49;;;;;;;16.37;12.97;;;;;;;;;;5005919;28;20676;-57
2020/12/19 08:16:14;;;;;;;17.43;12.07;;;;;;;;;;5012152;28;20609;-57
2020/12/19 08:18:39;;;;;;;18.10;12.57;;;;;;;;;;5009181;28;20743;-56
2020/12/19 08:21:05;;;;;;;16.20;12.57;;;;;;;;;;5007874;28;20227;-58
2020/12/19 08:23:30;;;;;;;14.80;11.87;;;;;;;;;;5005680;28;20714;-58
2020/12/19 08:25:55;;;;;;;15.63;12.70;;;;;;;;;;5000394;28;20267;-58
2020/12/19 08:28:21;;;;;;;17.33;13.50;;;;;;;;;;5013465;28;20200;-58
2020/12/19 08:30:46;;;;;;;15.50;12.80;;;;;;;;;;5007031;28;20178;-58
2020/12/19 08:33:12;;;;;;;17.23;14.10;;;;;;;;;;5005333;28;20638;-58
2020/12/19 08:35:41;;;;;;;14.70;12.23;;;;;;;;;;5004278;28;20174;-57
2020/12/19 08:38:21;;;;;;;18.10;13.27;;;;;;;;;;4998113;28;21251;-57
2020/12/19 08:40:47;;;;;;;17.10;13.10;;;;;;;;;;5013839;28;20607;-58
2020/12/19 08:43:12;;;;;;;18.23;14.00;;;;;;;;;;5016900;28;21177;-57
2020/12/19 08:45:39;;;;;;;20.67;14.70;;;;;;;;;;5025211;28;20600;-58
2020/12/19 08:48:05;;;;;;;19.53;15.20;;;;;;;;;;5010514;28;20187;-58
2020/12/19 08:50:41;;;;;;;19.20;13.60;;;;;;;;;;5008234;28;21173;-58
2020/12/19 08:53:16;;;;;;;17.17;13.07;;;;;;;;;;5007716;28;20746;-58
2020/12/19 08:55:41;;;;;;;18.40;13.43;;;;;;;;;;5007310;28;20611;-59
2020/12/19 08:58:07;;;;;;;17.20;13.53;;;;;;;;;;5018506;28;20591;-58
2020/12/19 09:00:36;;;;;;;18.57;14.43;;;;;;;;;;5013205;28;20264;-59
2020/12/19 09:03:03;;;;;;;17.93;13.70;;;;;;;;;;5011192;28;20316;-59
2020/12/19 09:05:32;;;;;;;16.30;13.67;;;;;;;;;;5016931;28;20592;-59
2020/12/19 09:08:00;;;;;;;17.30;14.07;;;;;;;;;;4998491;28;20620;-59
2020/12/19 09:10:30;;;;;;;14.90;12.77;;;;;;;;;;5006419;28;21161;-59
2020/12/19 09:13:11;;;;;;;17.63;14.07;;;;;;;;;;4998673;28;20607;-59
2020/12/19 09:15:36;;;;;;;20.43;15.30;;;;;;;;;;4991542;28;20684;-59
2020/12/19 09:18:11;;;;;;;15.03;12.97;;;;;;;;;;4991544;28;20708;-59
2020/12/19 09:20:36;;;;;;;17.30;14.00;;;;;;;;;;5006742;28;20263;-59
2020/12/19 09:23:04;;;;;;;16.48;13.38;;;;;;;;;;5011091;28;21089;-59
2020/12/19 09:25:30;;;;;;;16.80;13.40;;;;;;;;;;5010709;28;20217;-59
2020/12/19 09:27:55;;;;;;;16.77;13.60;;;;;;;;;;5010974;28;20926;-60
2020/12/19 09:30:20;;;;;;;16.38;12.88;;;;;;;;;;5007345;28;20605;-60
2020/12/19 09:32:45;;;;;;;19.13;14.05;;;;;;;;;;5010746;28;20183;-60
2020/12/19 09:35:11;;;;;;;18.58;14.80;;;;;;;;;;5010716;28;20180;-59
2020/12/19 09:37:36;;;;;;;20.70;15.60;;;;;;;;;;5010845;28;20626;-60
2020/12/19 09:40:01;;;;;;;17.60;13.97;;;;;;;;;;5007188;28;20180;-57
2020/12/19 09:42:26;;;;;;;17.88;14.05;;;;;;;;;;5008810;28;20172;-60
2020/12/19 09:44:51;;;;;;;20.38;14.93;;;;;;;;;;5010486;28;20177;-59
2020/12/19 09:47:16;;;;;;;20.27;14.52;;;;;;;;;;5010189;28;20215;-59
2020/12/19 09:49:41;;;;;;;19.33;14.52;;;;;;;;;;5008697;28;20588;-61
2020/12/19 09:52:07;;;;;;;21.83;16.17;;;;;;;;;;5010292;28;20172;-59
2020/12/19 09:54:32;;;;;;;18.92;15.05;;;;;;;;;;5010295;28;20243;-59
2020/12/19 09:56:57;;;;;;;19.85;14.48;;;;;;;;;;4994315;28;20784;-59
2020/12/19 09:59:22;;;;;;;20.07;16.00;;;;;;;;;;4988840;28;20162;-59
2020/12/19 10:01:47;;;;;;;17.65;14.90;;;;;;;;;;4990768;28;20177;-60
2020/12/19 10:04:12;;;;;;;22.27;16.23;;;;;;;;;;4990617;28;20273;-59
2020/12/19 10:06:37;;;;;;;20.42;16.48;;;;;;;;;;4990861;28;20248;-60
2020/12/19 10:09:03;;;;;;;21.73;16.45;;;;;;;;;;4990544;28;20507;-58
2020/12/19 10:11:28;;;;;;;19.60;15.43;;;;;;;;;;4996689;28;20208;-59
2020/12/19 10:13:54;;;;;;;17.67;15.00;;;;;;;;;;5009324;28;20216;-58
2020/12/19 10:16:19;;;;;;;18.67;13.73;;;;;;;;;;5010142;28;20236;-58
2020/12/19 10:18:44;;;;;;;17.80;14.85;;;;;;;;;;4994127;28;20609;-59
2020/12/19 10:21:09;;;;;;;17.90;14.60;;;;;;;;;;4988672;28;20175;-58
2020/12/19 10:23:34;;;;;;;18.57;15.20;;;;;;;;;;4990313;28;20192;-58
2020/12/19 10:26:00;;;;;;;19.07;15.87;;;;;;;;;;4990308;28;20240;-58
2020/12/19 10:28:26;;;;;;;19.37;15.90;;;;;;;;;;5022650;28;20214;-58
2020/12/19 10:30:51;;;;;;;19.80;15.83;;;;;;;;;;5027935;28;20613;-58
2020/12/19 10:33:16;;;;;;;16.33;14.32;;;;;;;;;;5029626;28;20228;-58
2020/12/19 10:35:41;;;;;;;17.95;14.93;;;;;;;;;;5029749;28;20583;-58
2020/12/19 10:38:06;;;;;;;16.95;14.20;;;;;;;;;;5003439;28;20170;-58
2020/12/19 10:40:31;;;;;;;18.70;14.82;;;;;;;;;;4988427;28;20174;-59
2020/12/19 10:42:56;;;;;;;17.65;15.65;;;;;;;;;;4990376;28;20231;-59
2020/12/19 10:45:21;;;;;;;19.93;15.07;;;;;;;;;;4990247;28;20184;-59
2020/12/19 10:47:47;;;;;;;18.75;15.07;;;;;;;;;;4990327;28;20176;-59
2020/12/19 10:50:17;;;;;;;20.17;15.73;;;;;;;;;;4988385;28;20187;-59
2020/12/19 10:52:42;;;;;;;18.60;15.57;;;;;;;;;;4991361;28;20255;-59
2020/12/19 10:55:07;;;;;;;19.10;15.80;;;;;;;;;;4990113;28;20647;-59
2020/12/19 10:57:32;;;;;;;20.10;16.27;;;;;;;;;;4990067;28;20174;-62
2020/12/19 10:59:57;;;;;;;21.60;17.50;;;;;;;;;;4993616;28;20531;-58
2020/12/19 11:02:22;;;;;;;20.30;17.17;;;;;;;;;;5022218;28;20181;-59
2020/12/19 11:04:48;;;;;;;19.40;15.20;;;;;;;;;;5016474;28;20219;-59
2020/12/19 11:07:13;;;;;;;20.23;16.63;;;;;;;;;;5016470;28;20223;-58
2020/12/19 11:09:38;;;;;;;18.40;16.40;;;;;;;;;;5016706;28;20648;-59
2020/12/19 11:12:03;;;;;;;18.42;15.75;;;;;;;;;;5018309;28;20220;-59
2020/12/19 11:14:29;;;;;;;19.50;16.63;;;;;;;;;;5012962;28;20209;-59
2020/12/19 11:16:57;;;;;;;19.13;15.80;;;;;;;;;;5021248;28;20542;-59
2020/12/19 11:19:22;;;;;;;17.73;15.70;;;;;;;;;;5023031;28;20599;-60
2020/12/19 11:21:47;;;;;;;15.60;13.90;;;;;;;;;;5023323;28;21429;-59
2020/12/19 11:24:18;;;;;;;17.67;15.18;;;;;;;;;;5008263;28;20270;-59
2020/12/19 11:26:44;;;;;;;15.47;13.87;;;;;;;;;;5014497;28;20822;-59
2020/12/19 11:29:09;;;;;;;15.68;14.07;;;;;;;;;;5014412;28;20604;-59
2020/12/19 11:31:35;;;;;;;18.07;13.30;;;;;;;;;;5012745;28;20592;-59
2020/12/19 11:34:00;;;;;;;14.93;13.33;;;;;;;;;;5022302;28;20228;-60
2020/12/19 11:36:25;;;;;;;15.97;13.57;;;;;;;;;;5013198;28;20653;-59
2020/12/19 11:38:51;;;;;;;16.00;13.43;;;;;;;;;;5006123;28;20533;-59
2020/12/19 11:41:23;;;;;;;16.75;14.63;;;;;;;;;;5029179;28;20168;-59
2020/12/19 11:43:48;;;;;;;14.77;13.27;;;;;;;;;;5015949;28;20193;-57
2020/12/19 11:46:13;;;;;;;15.30;13.53;;;;;;;;;;5015752;28;21024;-59
2020/12/19 11:48:39;;;;;;;13.73;11.83;;;;;;;;;;5010989;28;20181;-59
2020/12/19 11:51:04;;;;;;;14.60;11.53;;;;;;;;;;5023432;28;20211;-62
2020/12/19 11:53:29;;;;;;;13.93;11.93;;;;;;;;;;5019378;28;20292;-59
2020/12/19 11:55:54;;;;;;;13.40;12.00;;;;;;;;;;5019669;28;20589;-59
2020/12/19 11:58:19;;;;;;;14.00;11.13;;;;;;;;;;5012975;28;20838;-59
2020/12/19 12:00:44;;;;;;;13.75;11.18;;;;;;;;;;5009812;28;20177;-59
2020/12/19 12:03:10;;;;;;;12.02;10.73;;;;;;;;;;5022140;28;20670;-59
2020/12/19 12:05:35;;;;;;;12.10;10.30;;;;;;;;;;5014076;28;20181;-59
2020/12/19 12:08:00;;;;;;;13.23;11.45;;;;;;;;;;5015527;28;20237;-59
2020/12/19 12:10:31;;;;;;;11.85;9.25;;;;;;;;;;5011941;28;20181;-59
2020/12/19 12:12:57;;;;;;;12.53;10.30;;;;;;;;;;5002843;28;20309;-59
2020/12/19 12:15:22;;;;;;;12.07;10.07;;;;;;;;;;5001863;28;20710;-59
2020/12/19 12:17:56;;;;;;;12.02;10.23;;;;;;;;;;4992989;28;20174;-58
2020/12/19 12:20:21;;;;;;;12.23;10.80;;;;;;;;;;4993300;28;20330;-59
2020/12/19 12:22:46;;;;;;;15.77;13.33;;;;;;;;;;4996732;28;21229;-60
2020/12/19 12:25:12;;;;;;;11.67;10.50;;;;;;;;;;5007774;28;20241;-58
2020/12/19 12:27:37;;;;;;;13.30;11.90;;;;;;;;;;5015461;28;20177;-59
2020/12/19 12:30:03;;;;;;;13.38;10.63;;;;;;;;;;5012862;28;20523;-59
2020/12/19 12:32:29;;;;;;;13.07;11.77;;;;;;;;;;5011564;28;20247;-59
2020/12/19 12:34:54;;;;;;;13.20;11.27;;;;;;;;;;5019685;28;20752;-59
2020/12/19 12:37:19;;;;;;;12.65;11.35;;;;;;;;;;5007480;28;20214;-59
2020/12/19 12:39:44;;;;;;;12.02;10.75;;;;;;;;;;5017515;28;20177;-59
2020/12/19 12:42:09;;;;;;;13.10;11.13;;;;;;;;;;5022095;28;20545;-58
2020/12/19 12:44:35;;;;;;;12.63;11.27;;;;;;;;;;5027593;28;20670;-59
2020/12/19 12:47:01;;;;;;;11.90;10.70;;;;;;;;;;5024501;28;20240;-59
2020/12/19 12:49:26;;;;;;;11.83;10.37;;;;;;;;;;5007999;28;20178;-59
2020/12/19 12:51:51;;;;;;;11.23;10.13;;;;;;;;;;5015818;28;20612;-59
2020/12/19 12:54:16;;;;;;;11.23;10.05;;;;;;;;;;5015426;28;20609;-59
2020/12/19 12:56:42;;;;;;;10.60;9.57;;;;;;;;;;5027631;28;20663;-59
2020/12/19 12:59:07;;;;;;;11.23;10.03;;;;;;;;;;5014075;28;20186;-59
2020/12/19 13:01:32;;;;;;;12.30;11.05;;;;;;;;;;5011413;28;20223;-59
2020/12/19 13:03:58;;;;;;;11.63;10.43;;;;;;;;;;5013965;28;20244;-58
2020/12/19 13:06:23;;;;;;;12.73;11.37;;;;;;;;;;5019424;28;20177;-59
2020/12/19 13:08:48;;;;;;;13.80;11.77;;;;;;;;;;5015431;28;20177;-59
2020/12/19 13:11:17;;;;;;;13.30;11.50;;;;;;;;;;5016760;28;20545;-59
2020/12/19 13:13:42;;;;;;;12.27;10.87;;;;;;;;;;4998573;28;20250;-59
2020/12/19 13:16:07;;;;;;;12.35;11.05;;;;;;;;;;5015608;28;20603;-59
2020/12/19 13:18:32;;;;;;;13.85;11.57;;;;;;;;;;5021382;28;20241;-59
2020/12/19 13:20:57;;;;;;;12.52;11.20;;;;;;;;;;5020155;28;20184;-59
2020/12/19 13:23:22;;;;;;;11.67;10.47;;;;;;;;;;5005362;28;20533;-59
2020/12/19 13:25:48;;;;;;;12.20;10.90;;;;;;;;;;5013361;28;20270;-59
2020/12/19 13:28:13;;;;;;;12.80;10.90;;;;;;;;;;5024988;28;20188;-59
2020/12/19 13:30:38;;;;;;;12.68;11.38;;;;;;;;;;5013555;28;20270;-59
2020/12/19 13:33:03;;;;;;;15.00;11.70;;;;;;;;;;5017651;28;20327;-59
2020/12/19 13:35:53;;;;;;;12.45;10.65;;;;;;;;;;5021478;28;20174;-58
2020/12/19 13:38:18;;;;;;;14.50;11.93;;;;;;;;;;5003473;28;20178;-58
2020/12/19 13:40:44;;;;;;;14.20;10.90;;;;;;;;;;4987397;28;21247;-58
2020/12/19 13:43:09;;;;;;;13.43;11.80;;;;;;;;;;4991435;28;20538;-59
2020/12/19 13:45:34;;;;;;;13.82;10.95;;;;;;;;;;5010196;28;20235;-58
2020/12/19 13:47:59;;;;;;;11.88;10.50;;;;;;;;;;5010648;28;20176;-58
2020/12/19 13:50:24;;;;;;;15.05;11.93;;;;;;;;;;5008815;28;20177;-58
2020/12/19 13:52:49;;;;;;;15.00;11.98;;;;;;;;;;5010726;28;20172;-58
2020/12/19 13:55:15;;;;;;;16.50;13.60;;;;;;;;;;4996083;28;20193;-58
2020/12/19 13:57:40;;;;;;;13.53;12.00;;;;;;;;;;4990886;28;20170;-58
2020/12/19 14:00:06;;;;;;;13.32;11.82;;;;;;;;;;4990780;28;20178;-58
2020/12/19 14:02:32;;;;;;;16.30;12.97;;;;;;;;;;4989057;28;20182;-59
2020/12/19 14:04:57;;;;;;;14.10;12.30;;;;;;;;;;4992115;28;20600;-59
2020/12/19 14:07:22;;;;;;;14.88;12.55;;;;;;;;;;4991012;28;20327;-59
2020/12/19 14:09:47;;;;;;;15.23;11.90;;;;;;;;;;4995823;28;20172;-58
2020/12/19 14:12:12;;;;;;;14.77;12.50;;;;;;;;;;5006846;28;21177;-59
2020/12/19 14:14:37;;;;;;;12.47;10.80;;;;;;;;;;5010102;28;20209;-59